Buoy 41575

sailwx.info

Track history (hours):
 
Tides and Currents Weather Stations Pressure Air Temp Water Temp Dewpoint Dewpoint Depression Visibility Wind Speed Wind Dir Waves Ship Positions

Drifting buoy 41575

Last reported at 2017-Dec-18 01:46 UTC. Time now 2017-Dec-18 03:24 UTC.
Position N 35°06' W 070°41'.

Date/timePositionNaut miles runAvg speedWind from/ knotsBaromVisibWave heightAir tempDewpointWater temp
2017-Dec-18 01:46N 35°06' W 070°41'0 0.0
2017-Dec-18 01:43N 35°06' W 070°41'1 5.1
2017-Dec-18 01:36N 35°07' W 070°41'0 0.0
2017-Dec-18 01:01N 35°07' W 070°41'0 0.0
2017-Dec-18 00:58N 35°07' W 070°41'0 0.0
2017-Dec-18 00:52N 35°07' W 070°41'0 0.0
2017-Dec-18 00:46N 35°07' W 070°41'0 1.0
2017-Dec-18 00:16N 35°07' W 070°41'0 9.8
2017-Dec-18 00:13N 35°07' W 070°41'0 0.0
2017-Dec-18 00:04N 35°07' W 070°41'1 1.1
2017-Dec-17 23:23N 35°07' W 070°40'0 0.0
2017-Dec-17 23:17N 35°07' W 070°40'0 0.0
2017-Dec-17 23:12N 35°07' W 070°40'0 0.0
2017-Dec-17 23:08N 35°07' W 070°40'0 0.0
2017-Dec-17 22:39N 35°07' W 070°40'0 0.0
2017-Dec-17 21:40N 35°07' W 070°40'1 3.0
2017-Dec-17 21:28N 35°08' W 070°40'0 0.9
2017-Dec-17 20:55N 35°08' W 070°40'0 0.0
2017-Dec-17 20:26N 35°08' W 070°40'0 0.0
2017-Dec-17 20:23N 35°08' W 070°40'1 0.5
2017-Dec-17 18:44N 35°08' W 070°39'2 0.7
2017-Dec-17 16:05N 35°10' W 070°37'0 0.0
2017-Dec-17 15:23N 35°10' W 070°37'0 0.0
2017-Dec-17 15:20N 35°10' W 070°37'111.5
2017-Dec-17 15:14N 35°10' W 070°36'0 0.0
2017-Dec-17 14:26N 35°10' W 070°36'0 0.0
2017-Dec-17 14:23N 35°10' W 070°36'1 1.1
2017-Dec-17 13:40N 35°11' W 070°35'0 0.0
2017-Dec-17 13:37N 35°11' W 070°35'0 0.0
2017-Dec-17 13:34N 35°11' W 070°35'0 0.0
2017-Dec-17 13:28N 35°11' W 070°35'0 0.0
2017-Dec-17 12:58N 35°11' W 070°35'1 2.3
2017-Dec-17 12:38N 35°11' W 070°35'0 0.0
2017-Dec-17 11:58N 35°11' W 070°35'0 5.9
2017-Dec-17 11:53N 35°11' W 070°35'123.0
2017-Dec-17 11:50N 35°12' W 070°34'0 0.0
2017-Dec-17 11:21N 35°12' W 070°34'0 1.1
2017-Dec-17 10:53N 35°12' W 070°34'0 0.0
2017-Dec-17 10:41N 35°12' W 070°34'215.5
2017-Dec-17 10:35N 35°13' W 070°32'0 0.0
2017-Dec-17 09:36N 35°13' W 070°32'0 1.5
2017-Dec-17 09:16N 35°13' W 070°33'0 0.0
2017-Dec-17 09:09N 35°13' W 070°33'0 0.0
2017-Dec-17 09:02N 35°13' W 070°33'0 0.0
2017-Dec-17 08:59N 35°13' W 070°33'216.0
2017-Dec-17 08:52N 35°15' W 070°32'0 0.3
2017-Dec-17 07:15N 35°15' W 070°33'4 1.0
2017-Dec-17 03:43N 35°19' W 070°32'0 0.0
2017-Dec-17 02:54N 35°19' W 070°32'0 0.0
2017-Dec-17 02:07N 35°19' W 070°32'0 0.0
2017-Dec-17 02:04N 35°19' W 070°32'0 0.0
2017-Dec-17 01:57N 35°19' W 070°32'0 0.0
2017-Dec-17 01:21N 35°19' W 070°32'0 9.8
2017-Dec-17 01:18N 35°19' W 070°32'0 0.0
2017-Dec-17 01:10N 35°19' W 070°32'0 9.8
2017-Dec-17 01:07N 35°19' W 070°32'1 1.7
2017-Dec-17 00:40N 35°19' W 070°33'0 9.8
2017-Dec-17 00:37N 35°19' W 070°32'0 0.0
2017-Dec-17 00:26N 35°19' W 070°32'0 0.0
2017-Dec-17 00:19N 35°19' W 070°32'0 0.0
2017-Dec-16 23:43N 35°19' W 070°32'0 0.0
2017-Dec-16 23:40N 35°19' W 070°32'0 0.0
2017-Dec-16 23:34N 35°19' W 070°32'0 0.0
2017-Dec-16 23:31N 35°19' W 070°32'115.5
2017-Dec-16 23:28N 35°20' W 070°32'0 0.0
2017-Dec-16 22:56N 35°20' W 070°32'0 0.0
2017-Dec-16 22:02N 35°20' W 070°32'0 0.0
2017-Dec-16 21:51N 35°20' W 070°32'0 0.0
2017-Dec-16 21:48N 35°20' W 070°32'0 0.0
2017-Dec-16 21:22N 35°20' W 070°32'1 6.0
2017-Dec-16 21:16N 35°20' W 070°32'0 0.0
2017-Dec-16 20:39N 35°20' W 070°32'0 0.0
2017-Dec-16 20:33N 35°20' W 070°32'1 0.7
2017-Dec-16 18:57N 35°21' W 070°31'3 1.2
2017-Dec-16 16:23N 35°23' W 070°28'0 0.7
2017-Dec-16 15:38N 35°23' W 070°29'1 1.5
2017-Dec-16 14:47N 35°25' W 070°28'112.0
2017-Dec-16 14:44N 35°25' W 070°28'0 0.0
2017-Dec-16 14:03N 35°25' W 070°28'0 3.7
2017-Dec-16 13:55N 35°25' W 070°28'1 6.0
2017-Dec-16 13:49N 35°26' W 070°28'0 0.0
2017-Dec-16 13:46N 35°26' W 070°28'228.0
2017-Dec-16 13:42N 35°28' W 070°28'0 0.0
2017-Dec-16 13:16N 35°28' W 070°28'0 0.0
2017-Dec-16 13:05N 35°28' W 070°28'0 0.0
2017-Dec-16 12:11N 35°28' W 070°28'0 0.0
2017-Dec-16 12:05N 35°28' W 070°28'1 7.7
2017-Dec-16 11:59N 35°28' W 070°28'0 0.0
2017-Dec-16 11:27N 35°28' W 070°28'0 0.0
2017-Dec-16 11:24N 35°28' W 070°28'1 1.4
2017-Dec-16 10:50N 35°29' W 070°27'230.9
2017-Dec-16 10:47N 35°30' W 070°28'0 0.0
2017-Dec-16 09:58N 35°30' W 070°28'0 0.0
2017-Dec-16 09:48N 35°30' W 070°28'1 7.7
2017-Dec-16 09:42N 35°31' W 070°28'0 0.0
2017-Dec-16 09:11N 35°31' W 070°28'216.0
2017-Dec-16 09:04N 35°32' W 070°28'0 0.0
2017-Dec-16 08:05N 35°32' W 070°28'0 0.0
2017-Dec-16 07:29N 35°32' W 070°28'452.2
2017-Dec-16 07:24N 35°36' W 070°31'0 0.0
2017-Dec-16 02:25N 35°36' W 070°31'0 4.9
2017-Dec-16 02:19N 35°36' W 070°32'0 0.0
2017-Dec-16 01:43N 35°36' W 070°32'0 4.9
2017-Dec-16 01:37N 35°36' W 070°31'115.5
2017-Dec-16 01:34N 35°37' W 070°32'0 2.1
2017-Dec-16 01:20N 35°37' W 070°32'0 0.0
2017-Dec-16 00:46N 35°37' W 070°32'0 0.0
2017-Dec-16 00:43N 35°37' W 070°32'0 1.0
2017-Dec-16 00:13N 35°37' W 070°32'0 1.0
2017-Dec-15 23:45N 35°37' W 070°32'0 0.0
2017-Dec-15 23:41N 35°37' W 070°32'1 7.2
2017-Dec-15 23:36N 35°37' W 070°32'0 0.0
2017-Dec-15 22:34N 35°37' W 070°32'1 1.2
2017-Dec-15 22:03N 35°38' W 070°32'0 0.0
2017-Dec-15 21:48N 35°38' W 070°32'0 0.5
2017-Dec-15 20:50N 35°38' W 070°33'0 0.0
2017-Dec-15 20:47N 35°38' W 070°33'0 9.8
2017-Dec-15 20:44N 35°38' W 070°32'1 0.8
2017-Dec-15 19:08N 35°39' W 070°33'2 0.6
2017-Dec-15 16:03N 35°41' W 070°32'1 5.2
2017-Dec-15 15:54N 35°41' W 070°33'0 0.6
2017-Dec-15 15:07N 35°41' W 070°32'029.2
2017-Dec-15 15:06N 35°41' W 070°33'1 0.9
2017-Dec-15 14:24N 35°42' W 070°33'0 0.0
2017-Dec-15 14:15N 35°42' W 070°33'0 1.5
2017-Dec-15 13:56N 35°42' W 070°34'0 0.0
2017-Dec-15 13:53N 35°42' W 070°34'1 2.7
2017-Dec-15 13:26N 35°43' W 070°34'0 0.0
2017-Dec-15 12:23N 35°43' W 070°34'0 0.0
2017-Dec-15 12:15N 35°43' W 070°34'0 7.3
2017-Dec-15 12:11N 35°43' W 070°34'0 0.0
2017-Dec-15 11:57N 35°43' W 070°34'0 9.7
2017-Dec-15 11:54N 35°43' W 070°34'1 0.8
2017-Dec-15 10:58N 35°44' W 070°34'0 0.0
2017-Dec-15 10:36N 35°44' W 070°34'0 0.0
2017-Dec-15 10:30N 35°44' W 070°34'0 2.7
2017-Dec-15 10:19N 35°44' W 070°34'0 0.0
2017-Dec-15 10:16N 35°44' W 070°34'1 7.7
2017-Dec-15 10:10N 35°44' W 070°34'0 0.0
2017-Dec-15 09:23N 35°44' W 070°34'0 0.0
2017-Dec-15 09:19N 35°44' W 070°34'115.5
2017-Dec-15 09:16N 35°44' W 070°35'0 0.0
2017-Dec-15 08:40N 35°44' W 070°35'1 1.2
2017-Dec-15 07:42N 35°45' W 070°35'0 0.0
2017-Dec-15 07:39N 35°45' W 070°35'2 0.4
2017-Dec-15 02:46N 35°47' W 070°36'0 0.7
2017-Dec-15 02:04N 35°47' W 070°35'0 4.2
2017-Dec-15 01:57N 35°47' W 070°36'1 2.9
2017-Dec-15 01:32N 35°48' W 070°36'0 0.0
2017-Dec-15 01:08N 35°48' W 070°36'0 0.0
2017-Dec-15 01:02N 35°48' W 070°36'0 0.0
2017-Dec-15 00:59N 35°48' W 070°36'0 0.0
2017-Dec-15 00:41N 35°48' W 070°36'1 1.1
2017-Dec-14 23:57N 35°49' W 070°37'1 9.8
2017-Dec-14 23:50N 35°49' W 070°38'0 0.0
2017-Dec-14 23:23N 35°49' W 070°38'0 0.0
2017-Dec-14 23:04N 35°49' W 070°38'0 0.0
2017-Dec-14 23:01N 35°49' W 070°38'1 1.0
2017-Dec-14 22:15N 35°50' W 070°37'014.6
2017-Dec-14 22:13N 35°50' W 070°38'1 1.5
2017-Dec-14 21:20N 35°51' W 070°38'1 2.4
2017-Dec-14 21:01N 35°50' W 070°39'0 0.0
2017-Dec-14 20:56N 35°50' W 070°39'2 1.0
2017-Dec-14 19:19N 35°52' W 070°40'6 1.5
2017-Dec-14 15:27N 35°53' W 070°47'0 0.0
2017-Dec-14 14:42N 35°53' W 070°47'0 0.0
2017-Dec-14 14:36N 35°53' W 070°47'0 0.0
2017-Dec-14 14:12N 35°53' W 070°47'0 0.0
2017-Dec-14 14:06N 35°53' W 070°47'0 0.0
2017-Dec-14 13:47N 35°53' W 070°47'1 1.2
2017-Dec-14 12:35N 35°53' W 070°49'123.2
2017-Dec-14 12:33N 35°53' W 070°50'0 0.0
2017-Dec-14 12:29N 35°53' W 070°50'1 7.7
2017-Dec-14 12:23N 35°53' W 070°50'0 0.0
2017-Dec-14 10:54N 35°53' W 070°50'0 9.7
2017-Dec-14 10:51N 35°53' W 070°51'0 9.7
2017-Dec-14 10:48N 35°53' W 070°50'0 0.0
2017-Dec-14 10:46N 35°53' W 070°50'1 1.3
2017-Dec-14 09:37N 35°53' W 070°52'0 0.0
2017-Dec-14 09:31N 35°53' W 070°52'238.9
2017-Dec-14 09:28N 35°53' W 070°55'1 4.6
2017-Dec-14 09:09N 35°53' W 070°53'112.5
2017-Dec-14 09:02N 35°53' W 070°55'0 0.0
2017-Dec-14 07:55N 35°53' W 070°55'434.9
2017-Dec-14 07:48N 35°52' W 070°59'0 0.0
2017-Dec-14 03:09N 35°52' W 070°59'0 0.0
2017-Dec-14 02:19N 35°52' W 070°59'1 2.5
2017-Dec-14 01:44N 35°52' W 071°01'0 0.0
2017-Dec-14 01:28N 35°52' W 071°01'0 0.0
2017-Dec-14 01:25N 35°52' W 071°01'0 0.0
2017-Dec-14 01:20N 35°52' W 071°01'0 0.0
2017-Dec-14 01:11N 35°52' W 071°01'0 0.0
2017-Dec-14 00:42N 35°52' W 071°01'0 0.0
2017-Dec-14 00:35N 35°52' W 071°01'0 0.0
2017-Dec-14 00:09N 35°52' W 071°01'1 9.7
2017-Dec-14 00:03N 35°52' W 071°02'0 0.0
2017-Dec-13 23:45N 35°52' W 071°02'0 0.0
2017-Dec-13 23:42N 35°52' W 071°02'0 0.0
2017-Dec-13 23:33N 35°52' W 071°02'1 0.9
2017-Dec-13 22:39N 35°51' W 071°03'1 3.0
2017-Dec-13 22:27N 35°52' W 071°03'0 0.9
2017-Dec-13 21:53N 35°52' W 071°04'0 0.7
2017-Dec-13 21:13N 35°52' W 071°04'0 0.0
2017-Dec-13 21:10N 35°52' W 071°04'0 0.0
2017-Dec-13 21:07N 35°52' W 071°04'2 1.0
2017-Dec-13 19:32N 35°52' W 071°06'0 0.0
2017-Dec-13 19:29N 35°52' W 071°06'453.0
2017-Dec-13 19:24N 35°53' W 071°11'0 0.0
2017-Dec-13 17:49N 35°53' W 071°11'0 0.2
2017-Dec-13 15:48N 35°53' W 071°12'0 0.0
2017-Dec-13 15:06N 35°53' W 071°12'0 0.0
2017-Dec-13 15:03N 35°53' W 071°12'1 1.5
2017-Dec-13 14:24N 35°53' W 071°13'1 9.7
2017-Dec-13 14:18N 35°53' W 071°14'0 0.0
2017-Dec-13 14:09N 35°53' W 071°14'1 1.3
2017-Dec-13 13:16N 35°53' W 071°16'0 0.0
2017-Dec-13 12:58N 35°53' W 071°16'2 9.7
2017-Dec-13 12:46N 35°53' W 071°18'0 0.0
2017-Dec-13 12:41N 35°53' W 071°18'0 0.0
2017-Dec-13 11:21N 35°53' W 071°18'112.0
2017-Dec-13 11:18N 35°53' W 071°18'246.3
2017-Dec-13 11:15N 35°55' W 071°20'0 0.0
2017-Dec-13 11:00N 35°55' W 071°20'218.0
2017-Dec-13 10:54N 35°53' W 071°20'0 0.0
2017-Dec-13 09:49N 35°53' W 071°20'0 0.0
2017-Dec-13 09:48N 35°53' W 071°20'0 0.0
2017-Dec-13 09:43N 35°53' W 071°20'0 0.0
2017-Dec-13 09:42N 35°53' W 071°20'0 7.3
2017-Dec-13 09:38N 35°53' W 071°20'0 0.0
2017-Dec-13 09:37N 35°53' W 071°20'218.9
2017-Dec-13 09:32N 35°53' W 071°22'0 0.0
2017-Dec-13 08:06N 35°53' W 071°22'0 0.0
2017-Dec-13 08:03N 35°53' W 071°22'5 1.2
2017-Dec-13 03:29N 35°55' W 071°29'1 7.7
2017-Dec-13 03:23N 35°54' W 071°29'0 0.0
2017-Dec-13 02:40N 35°54' W 071°29'1 1.7
2017-Dec-13 01:50N 35°54' W 071°31'0 0.0
2017-Dec-13 01:46N 35°54' W 071°31'1 7.3
2017-Dec-13 01:38N 35°54' W 071°32'0 0.0
2017-Dec-13 01:02N 35°54' W 071°32'1 9.0
2017-Dec-13 00:58N 35°53' W 071°32'119.4
2017-Dec-13 00:55N 35°53' W 071°34'1 4.3
2017-Dec-13 00:39N 35°54' W 071°32'1 3.8
2017-Dec-13 00:21N 35°53' W 071°34'0 4.9
2017-Dec-13 00:15N 35°53' W 071°33'0 2.9
2017-Dec-13 00:05N 35°53' W 071°34'0 0.0
2017-Dec-13 00:03N 35°53' W 071°34'2 1.3
2017-Dec-12 22:37N 35°52' W 071°35'0 0.0
2017-Dec-12 22:28N 35°52' W 071°35'2 1.7
2017-Dec-12 21:23N 35°51' W 071°37'337.6
2017-Dec-12 21:19N 35°50' W 071°40'0 0.0
2017-Dec-12 19:44N 35°50' W 071°40'0 0.0
2017-Dec-12 19:39N 35°50' W 071°40'4 2.3
2017-Dec-12 17:59N 35°49' W 071°44'1 0.7
2017-Dec-12 16:08N 35°47' W 071°45'0 0.0
2017-Dec-12 15:24N 35°47' W 071°45'111.4
2017-Dec-12 15:18N 35°47' W 071°46'0 0.0
2017-Dec-12 14:34N 35°47' W 071°46'0 0.0
2017-Dec-12 14:30N 35°47' W 071°46'269.5
2017-Dec-12 14:28N 35°45' W 071°48'0 0.0
2017-Dec-12 14:27N 35°45' W 071°48'0 0.0
2017-Dec-12 13:37N 35°45' W 071°48'0 0.0
2017-Dec-12 12:55N 35°45' W 071°48'1 9.7
2017-Dec-12 12:47N 35°44' W 071°49'0 0.0
2017-Dec-12 12:42N 35°44' W 071°49'0 0.0
2017-Dec-12 11:51N 35°44' W 071°49'0 4.9
2017-Dec-12 11:45N 35°44' W 071°48'1 1.9
2017-Dec-12 11:15N 35°44' W 071°49'113.0
2017-Dec-12 11:09N 35°43' W 071°50'0 0.0
2017-Dec-12 10:13N 35°43' W 071°50'0 0.0
2017-Dec-12 10:07N 35°43' W 071°50'0 0.0
2017-Dec-12 10:02N 35°43' W 071°50'0 0.0
2017-Dec-12 10:01N 35°43' W 071°50'0 0.0
2017-Dec-12 09:56N 35°43' W 071°50'113.0
2017-Dec-12 09:50N 35°41' W 071°50'0 0.0
2017-Dec-12 08:32N 35°41' W 071°50'1 2.6
2017-Dec-12 08:18N 35°41' W 071°50'0 7.3
2017-Dec-12 08:14N 35°41' W 071°51'481.9
2017-Dec-12 08:11N 35°37' W 071°53'0 0.0
2017-Dec-12 03:48N 35°37' W 071°53'218.6
2017-Dec-12 03:43N 35°36' W 071°55'0 0.0
2017-Dec-12 02:58N 35°36' W 071°55'0 0.0
2017-Dec-12 02:08N 35°36' W 071°55'1 4.0
2017-Dec-12 01:59N 35°35' W 071°55'0 0.0
2017-Dec-12 01:25N 35°35' W 071°55'0 0.0
2017-Dec-12 01:19N 35°35' W 071°55'119.5
2017-Dec-12 01:16N 35°35' W 071°56'1 1.2
2017-Dec-12 00:36N 35°35' W 071°55'0 0.0
2017-Dec-12 00:32N 35°35' W 071°55'0 0.0
2017-Dec-12 00:29N 35°35' W 071°55'0 9.8
2017-Dec-12 00:26N 35°35' W 071°55'0 9.8
2017-Dec-12 00:23N 35°35' W 071°55'1 0.7
2017-Dec-11 23:20N 35°34' W 071°56'0 0.0
2017-Dec-11 22:58N 35°34' W 071°56'0 4.2
2017-Dec-11 22:51N 35°34' W 071°56'0 0.0
2017-Dec-11 22:45N 35°34' W 071°56'125.9
2017-Dec-11 22:42N 35°33' W 071°57'0 0.0
2017-Dec-11 21:48N 35°33' W 071°57'0 0.0
2017-Dec-11 21:39N 35°33' W 071°57'0 0.0
2017-Dec-11 21:34N 35°33' W 071°57'0 9.8
2017-Dec-11 21:31N 35°33' W 071°58'1 1.8
2017-Dec-11 21:11N 35°32' W 071°58'0 0.0
2017-Dec-11 19:56N 35°32' W 071°58'0 0.0
2017-Dec-11 19:51N 35°32' W 071°58'324.1
2017-Dec-11 19:44N 35°30' W 071°59'0 0.0
2017-Dec-11 18:13N 35°30' W 071°59'0 0.0
2017-Dec-11 18:06N 35°30' W 071°59'1 0.8
2017-Dec-11 16:28N 35°29' W 072°00'0 0.0
2017-Dec-11 15:45N 35°29' W 072°00'213.7
2017-Dec-11 15:36N 35°27' W 072°01'0 0.0
2017-Dec-11 14:48N 35°27' W 072°01'0 0.0
2017-Dec-11 14:42N 35°27' W 072°01'0 0.0
2017-Dec-11 14:06N 35°27' W 072°01'0 0.0
2017-Dec-11 13:43N 35°27' W 072°01'0 0.0
2017-Dec-11 13:07N 35°27' W 072°01'1 5.8
2017-Dec-11 12:59N 35°26' W 072°02'0 0.0
2017-Dec-11 12:17N 35°26' W 072°02'0 0.0
2017-Dec-11 12:11N 35°26' W 072°02'1 1.0
2017-Dec-11 11:25N 35°26' W 072°02'112.0
2017-Dec-11 11:22N 35°25' W 072°02'0 0.0
2017-Dec-11 10:42N 35°25' W 072°02'0 1.6
2017-Dec-11 10:24N 35°25' W 072°03'0 0.0
2017-Dec-11 10:12N 35°25' W 072°03'0 0.0
2017-Dec-11 10:07N 35°25' W 072°03'115.5
2017-Dec-11 10:02N 35°24' W 072°04'0 0.0
2017-Dec-11 09:04N 35°24' W 072°04'1 1.5
2017-Dec-11 08:32N 35°23' W 072°03'118.0
2017-Dec-11 08:30N 35°23' W 072°03'424.6
2017-Dec-11 08:20N 35°19' W 072°05'0 0.0
2017-Dec-11 06:43N 35°19' W 072°05'0 0.0
2017-Dec-11 03:18N 35°19' W 072°05'0 0.0
2017-Dec-11 02:29N 35°19' W 072°05'0 0.0
2017-Dec-11 02:21N 35°19' W 072°05'0 0.0
2017-Dec-11 01:43N 35°19' W 072°05'1 6.0
2017-Dec-11 01:37N 35°19' W 072°05'0 0.0
2017-Dec-11 01:04N 35°19' W 072°05'0 0.0
2017-Dec-11 00:51N 35°19' W 072°05'1 7.2
2017-Dec-11 00:46N 35°18' W 072°05'0 0.0
2017-Dec-11 00:40N 35°18' W 072°05'029.4
2017-Dec-11 00:39N 35°18' W 072°05'0 0.6
2017-Dec-10 23:47N 35°18' W 072°05'1 2.4
2017-Dec-10 23:28N 35°17' W 072°05'0 1.2
2017-Dec-10 23:04N 35°17' W 072°05'0 0.0
2017-Dec-10 22:58N 35°17' W 072°05'1 7.2
2017-Dec-10 22:53N 35°17' W 072°05'0 0.0
2017-Dec-10 22:14N 35°17' W 072°05'0 0.0
2017-Dec-10 21:48N 35°17' W 072°05'112.0
2017-Dec-10 21:45N 35°17' W 072°05'363.1
2017-Dec-10 21:42N 35°14' W 072°07'0 0.0
2017-Dec-10 20:07N 35°14' W 072°07'0 0.0
2017-Dec-10 20:03N 35°14' W 072°07'0 0.0
2017-Dec-10 19:58N 35°14' W 072°07'0 0.0
2017-Dec-10 19:55N 35°14' W 072°07'0 0.0
2017-Dec-10 18:24N 35°14' W 072°07'1 6.6
2017-Dec-10 18:17N 35°14' W 072°07'0 0.0
2017-Dec-10 16:06N 35°14' W 072°07'0 0.0
2017-Dec-10 16:03N 35°14' W 072°07'0 0.0
2017-Dec-10 15:10N 35°14' W 072°07'1 2.7
2017-Dec-10 14:53N 35°13' W 072°07'0 0.0
2017-Dec-10 14:27N 35°13' W 072°07'1 6.9
2017-Dec-10 14:17N 35°13' W 072°08'0 0.0
2017-Dec-10 13:30N 35°13' W 072°08'0 0.0
2017-Dec-10 13:18N 35°13' W 072°08'0 5.9
2017-Dec-10 13:13N 35°13' W 072°07'0 9.8
2017-Dec-10 13:10N 35°13' W 072°08'0 0.0
2017-Dec-10 12:36N 35°13' W 072°08'1 0.6
2017-Dec-10 11:38N 35°12' W 072°08'1 9.0
2017-Dec-10 11:34N 35°11' W 072°08'0 0.0
2017-Dec-10 11:16N 35°11' W 072°08'0 0.0
2017-Dec-10 11:13N 35°11' W 072°08'0 0.0
2017-Dec-10 10:53N 35°11' W 072°08'0 0.0
2017-Dec-10 10:18N 35°11' W 072°08'111.6
2017-Dec-10 10:14N 35°11' W 072°08'0 0.0
2017-Dec-10 09:34N 35°11' W 072°08'0 0.0
2017-Dec-10 09:30N 35°11' W 072°08'0 0.0
2017-Dec-10 09:27N 35°11' W 072°08'0 0.0
2017-Dec-10 08:43N 35°11' W 072°08'320.3
2017-Dec-10 08:34N 35°13' W 072°11'0 0.0
2017-Dec-10 08:31N 35°13' W 072°11'0 0.0
2017-Dec-10 06:54N 35°13' W 072°11'0 0.0
2017-Dec-10 02:50N 35°13' W 072°11'0 0.0
2017-Dec-10 02:44N 35°13' W 072°11'0 0.8
2017-Dec-10 02:07N 35°13' W 072°12'0 4.2
2017-Dec-10 02:00N 35°13' W 072°11'1 1.7
2017-Dec-10 01:08N 35°13' W 072°13'0 4.9
2017-Dec-10 01:02N 35°13' W 072°14'0 2.5
2017-Dec-10 00:50N 35°13' W 072°13'1 2.5
2017-Dec-10 00:26N 35°13' W 072°14'0 2.1
2017-Dec-10 00:12N 35°13' W 072°14'0 0.0
2017-Dec-10 00:00N 35°13' W 072°14'0 0.0
2017-Dec-09 23:59N 35°13' W 072°14'1 1.6
2017-Dec-09 23:15N 35°12' W 072°15'0 0.0
2017-Dec-09 23:09N 35°12' W 072°15'1 1.4
2017-Dec-09 22:36N 35°11' W 072°16'0 0.0
2017-Dec-09 22:21N 35°11' W 072°16'2 3.2
2017-Dec-09 21:52N 35°10' W 072°17'0 0.0
2017-Dec-09 20:52N 35°10' W 072°17'0 0.0
2017-Dec-09 20:18N 35°10' W 072°17'0 0.0
2017-Dec-09 20:15N 35°10' W 072°17'0 0.0
2017-Dec-09 20:12N 35°10' W 072°17'219.0
2017-Dec-09 20:06N 35°09' W 072°19'0 0.0
2017-Dec-09 18:37N 35°09' W 072°19'3 0.8
2017-Dec-09 15:29N 35°07' W 072°20'0 0.0
2017-Dec-09 14:47N 35°07' W 072°20'0 0.0
2017-Dec-09 14:44N 35°07' W 072°20'112.0
2017-Dec-09 14:41N 35°06' W 072°20'0 0.0
2017-Dec-09 14:38N 35°06' W 072°20'0 0.0
2017-Dec-09 13:52N 35°06' W 072°20'1 2.0
2017-Dec-09 13:29N 35°05' W 072°20'0 9.8
2017-Dec-09 13:26N 35°05' W 072°21'111.6
2017-Dec-09 13:22N 35°05' W 072°20'0 0.0
2017-Dec-09 12:59N 35°05' W 072°20'0 0.0
2017-Dec-09 11:51N 35°05' W 072°20'1 7.2
2017-Dec-09 11:46N 35°04' W 072°20'0 0.0
2017-Dec-09 11:45N 35°04' W 072°20'0 0.0
2017-Dec-09 11:42N 35°04' W 072°20'0 0.0
2017-Dec-09 11:16N 35°04' W 072°20'1 0.8
2017-Dec-09 10:31N 35°04' W 072°20'0 0.0
2017-Dec-09 10:27N 35°04' W 072°20'0 0.0
2017-Dec-09 10:06N 35°04' W 072°20'0 0.0
2017-Dec-09 10:03N 35°04' W 072°20'1 0.5
2017-Dec-09 08:54N 35°03' W 072°20'0 0.0
2017-Dec-09 08:51N 35°03' W 072°20'0 0.0
2017-Dec-09 08:48N 35°03' W 072°20'1 9.0
2017-Dec-09 08:44N 35°02' W 072°20'0 0.0
2017-Dec-09 08:24N 35°02' W 072°20'3 2.0
2017-Dec-09 07:05N 35°01' W 072°23'0 0.0
2017-Dec-09 03:07N 35°01' W 072°23'0 0.0
2017-Dec-09 02:25N 35°01' W 072°23'1 0.7
2017-Dec-09 01:32N 35°00' W 072°23'0 0.0
2017-Dec-09 01:28N 35°00' W 072°23'1 4.5
2017-Dec-09 01:20N 34°59' W 072°23'0 0.0
2017-Dec-09 01:07N 34°59' W 072°23'0 0.0
2017-Dec-09 01:02N 34°59' W 072°23'0 1.8
2017-Dec-09 00:46N 34°59' W 072°23'0 0.0
2017-Dec-09 00:40N 34°59' W 072°23'118.0
2017-Dec-09 00:38N 34°59' W 072°23'0 0.0
2017-Dec-09 00:37N 34°59' W 072°23'0 0.0
2017-Dec-09 00:28N 34°59' W 072°23'1 0.9
2017-Dec-08 23:50N 34°58' W 072°23'1 9.0
2017-Dec-08 23:46N 34°58' W 072°23'0 0.0
2017-Dec-08 23:26N 34°58' W 072°23'0 0.0
2017-Dec-08 23:20N 34°58' W 072°23'0 0.0
2017-Dec-08 23:17N 34°58' W 072°23'0 0.0
2017-Dec-08 22:56N 34°58' W 072°23'0 0.0
2017-Dec-08 22:53N 34°58' W 072°23'0 0.0
2017-Dec-08 22:47N 34°58' W 072°23'1 1.9
2017-Dec-08 22:06N 34°56' W 072°23'0 0.0
2017-Dec-08 21:42N 34°56' W 072°23'0 0.0
2017-Dec-08 21:39N 34°56' W 072°23'0 0.0
2017-Dec-08 21:23N 34°56' W 072°23'1 0.8
2017-Dec-08 20:27N 34°56' W 072°22'1 5.8
2017-Dec-08 20:19N 34°55' W 072°22'0 0.0
2017-Dec-08 18:47N 34°55' W 072°22'220.0
2017-Dec-08 18:40N 34°53' W 072°20'0 0.0
2017-Dec-08 15:52N 34°53' W 072°20'029.5
2017-Dec-08 15:51N 34°53' W 072°19'0 0.0
2017-Dec-08 15:07N 34°53' W 072°19'1 1.3
2017-Dec-08 14:14N 34°53' W 072°18'0 4.2
2017-Dec-08 14:07N 34°53' W 072°19'0 1.2
2017-Dec-08 13:42N 34°53' W 072°18'0 0.0
2017-Dec-08 13:39N 34°53' W 072°18'1 3.1
2017-Dec-08 13:17N 34°52' W 072°17'0 0.0
2017-Dec-08 12:12N 34°52' W 072°17'0 0.0
2017-Dec-08 12:03N 34°52' W 072°17'212.0
2017-Dec-08 11:55N 34°52' W 072°15'0 0.0
2017-Dec-08 11:48N 34°52' W 072°15'0 0.0
2017-Dec-08 11:45N 34°52' W 072°15'0 0.5
2017-Dec-08 10:44N 34°52' W 072°16'1 6.0
2017-Dec-08 10:38N 34°52' W 072°16'0 0.0
2017-Dec-08 10:35N 34°52' W 072°16'0 9.8
2017-Dec-08 10:32N 34°52' W 072°15'0 0.0
2017-Dec-08 10:01N 34°52' W 072°15'1 0.8
2017-Dec-08 09:03N 34°52' W 072°14'0 0.0
2017-Dec-08 08:57N 34°52' W 072°14'029.5
2017-Dec-08 08:56N 34°52' W 072°15'0 0.0
2017-Dec-08 07:22N 34°52' W 072°15'123.1
2017-Dec-08 07:19N 34°52' W 072°16'2 0.6
2017-Dec-08 03:31N 34°50' W 072°14'1 6.0
2017-Dec-08 03:25N 34°50' W 072°14'0 0.0
2017-Dec-08 02:41N 34°50' W 072°14'1 1.5
2017-Dec-08 01:53N 34°49' W 072°14'0 0.0
2017-Dec-08 01:50N 34°49' W 072°14'  
Track history (hours):
 
Tides and Currents Weather Stations Pressure Air Temp Water Temp Dewpoint Dewpoint Depression Visibility Wind Speed Wind Dir Waves Ship Positions

Drifting buoy 41575

Last reported at 2017-Dec-18 01:46 UTC. Time now 2017-Dec-18 03:24 UTC.
Position N 35°06' W 070°41'.

Date/timePositionNaut miles runAvg speedWind from/ knotsBaromVisibWave heightAir tempDewpointWater temp
2017-Dec-18 01:46N 35°06' W 070°41'0 0.0
2017-Dec-18 01:43N 35°06' W 070°41'1 5.1
2017-Dec-18 01:36N 35°07' W 070°41'0 0.0
2017-Dec-18 01:01N 35°07' W 070°41'0 0.0
2017-Dec-18 00:58N 35°07' W 070°41'0 0.0
2017-Dec-18 00:52N 35°07' W 070°41'0 0.0
2017-Dec-18 00:46N 35°07' W 070°41'0 1.0
2017-Dec-18 00:16N 35°07' W 070°41'0 9.8
2017-Dec-18 00:13N 35°07' W 070°41'0 0.0
2017-Dec-18 00:04N 35°07' W 070°41'1 1.1
2017-Dec-17 23:23N 35°07' W 070°40'0 0.0
2017-Dec-17 23:17N 35°07' W 070°40'0 0.0
2017-Dec-17 23:12N 35°07' W 070°40'0 0.0
2017-Dec-17 23:08N 35°07' W 070°40'0 0.0
2017-Dec-17 22:39N 35°07' W 070°40'0 0.0
2017-Dec-17 21:40N 35°07' W 070°40'1 3.0
2017-Dec-17 21:28N 35°08' W 070°40'0 0.9
2017-Dec-17 20:55N 35°08' W 070°40'0 0.0
2017-Dec-17 20:26N 35°08' W 070°40'0 0.0
2017-Dec-17 20:23N 35°08' W 070°40'1 0.5
2017-Dec-17 18:44N 35°08' W 070°39'2 0.7
2017-Dec-17 16:05N 35°10' W 070°37'0 0.0
2017-Dec-17 15:23N 35°10' W 070°37'0 0.0
2017-Dec-17 15:20N 35°10' W 070°37'111.5
2017-Dec-17 15:14N 35°10' W 070°36'0 0.0
2017-Dec-17 14:26N 35°10' W 070°36'0 0.0
2017-Dec-17 14:23N 35°10' W 070°36'1 1.1
2017-Dec-17 13:40N 35°11' W 070°35'0 0.0
2017-Dec-17 13:37N 35°11' W 070°35'0 0.0
2017-Dec-17 13:34N 35°11' W 070°35'0 0.0
2017-Dec-17 13:28N 35°11' W 070°35'0 0.0
2017-Dec-17 12:58N 35°11' W 070°35'1 2.3
2017-Dec-17 12:38N 35°11' W 070°35'0 0.0
2017-Dec-17 11:58N 35°11' W 070°35'0 5.9
2017-Dec-17 11:53N 35°11' W 070°35'123.0
2017-Dec-17 11:50N 35°12' W 070°34'0 0.0
2017-Dec-17 11:21N 35°12' W 070°34'0 1.1
2017-Dec-17 10:53N 35°12' W 070°34'0 0.0
2017-Dec-17 10:41N 35°12' W 070°34'215.5
2017-Dec-17 10:35N 35°13' W 070°32'0 0.0
2017-Dec-17 09:36N 35°13' W 070°32'0 1.5
2017-Dec-17 09:16N 35°13' W 070°33'0 0.0
2017-Dec-17 09:09N 35°13' W 070°33'0 0.0
2017-Dec-17 09:02N 35°13' W 070°33'0 0.0
2017-Dec-17 08:59N 35°13' W 070°33'216.0
2017-Dec-17 08:52N 35°15' W 070°32'0 0.3
2017-Dec-17 07:15N 35°15' W 070°33'4 1.0
2017-Dec-17 03:43N 35°19' W 070°32'0 0.0
2017-Dec-17 02:54N 35°19' W 070°32'0 0.0
2017-Dec-17 02:07N 35°19' W 070°32'0 0.0
2017-Dec-17 02:04N 35°19' W 070°32'0 0.0
2017-Dec-17 01:57N 35°19' W 070°32'0 0.0
2017-Dec-17 01:21N 35°19' W 070°32'0 9.8
2017-Dec-17 01:18N 35°19' W 070°32'0 0.0
2017-Dec-17 01:10N 35°19' W 070°32'0 9.8
2017-Dec-17 01:07N 35°19' W 070°32'1 1.7
2017-Dec-17 00:40N 35°19' W 070°33'0 9.8
2017-Dec-17 00:37N 35°19' W 070°32'0 0.0
2017-Dec-17 00:26N 35°19' W 070°32'0 0.0
2017-Dec-17 00:19N 35°19' W 070°32'0 0.0
2017-Dec-16 23:43N 35°19' W 070°32'0 0.0
2017-Dec-16 23:40N 35°19' W 070°32'0 0.0
2017-Dec-16 23:34N 35°19' W 070°32'0 0.0
2017-Dec-16 23:31N 35°19' W 070°32'115.5
2017-Dec-16 23:28N 35°20' W 070°32'0 0.0
2017-Dec-16 22:56N 35°20' W 070°32'0 0.0
2017-Dec-16 22:02N 35°20' W 070°32'0 0.0
2017-Dec-16 21:51N 35°20' W 070°32'0 0.0
2017-Dec-16 21:48N 35°20' W 070°32'0 0.0
2017-Dec-16 21:22N 35°20' W 070°32'1 6.0
2017-Dec-16 21:16N 35°20' W 070°32'0 0.0
2017-Dec-16 20:39N 35°20' W 070°32'0 0.0
2017-Dec-16 20:33N 35°20' W 070°32'1 0.7
2017-Dec-16 18:57N 35°21' W 070°31'3 1.2
2017-Dec-16 16:23N 35°23' W 070°28'0 0.7
2017-Dec-16 15:38N 35°23' W 070°29'1 1.5
2017-Dec-16 14:47N 35°25' W 070°28'112.0
2017-Dec-16 14:44N 35°25' W 070°28'0 0.0
2017-Dec-16 14:03N 35°25' W 070°28'0 3.7
2017-Dec-16 13:55N 35°25' W 070°28'1 6.0
2017-Dec-16 13:49N 35°26' W 070°28'0 0.0
2017-Dec-16 13:46N 35°26' W 070°28'228.0
2017-Dec-16 13:42N 35°28' W 070°28'0 0.0
2017-Dec-16 13:16N 35°28' W 070°28'0 0.0
2017-Dec-16 13:05N 35°28' W 070°28'0 0.0
2017-Dec-16 12:11N 35°28' W 070°28'0 0.0
2017-Dec-16 12:05N 35°28' W 070°28'1 7.7
2017-Dec-16 11:59N 35°28' W 070°28'0 0.0
2017-Dec-16 11:27N 35°28' W 070°28'0 0.0
2017-Dec-16 11:24N 35°28' W 070°28'1 1.4
2017-Dec-16 10:50N 35°29' W 070°27'230.9
2017-Dec-16 10:47N 35°30' W 070°28'0 0.0
2017-Dec-16 09:58N 35°30' W 070°28'0 0.0
2017-Dec-16 09:48N 35°30' W 070°28'1 7.7
2017-Dec-16 09:42N 35°31' W 070°28'0 0.0
2017-Dec-16 09:11N 35°31' W 070°28'216.0
2017-Dec-16 09:04N 35°32' W 070°28'0 0.0
2017-Dec-16 08:05N 35°32' W 070°28'0 0.0
2017-Dec-16 07:29N 35°32' W 070°28'452.2
2017-Dec-16 07:24N 35°36' W 070°31'0 0.0
2017-Dec-16 02:25N 35°36' W 070°31'0 4.9
2017-Dec-16 02:19N 35°36' W 070°32'0 0.0
2017-Dec-16 01:43N 35°36' W 070°32'0 4.9
2017-Dec-16 01:37N 35°36' W 070°31'115.5
2017-Dec-16 01:34N 35°37' W 070°32'0 2.1
2017-Dec-16 01:20N 35°37' W 070°32'0 0.0
2017-Dec-16 00:46N 35°37' W 070°32'0 0.0
2017-Dec-16 00:43N 35°37' W 070°32'0 1.0
2017-Dec-16 00:13N 35°37' W 070°32'0 1.0
2017-Dec-15 23:45N 35°37' W 070°32'0 0.0
2017-Dec-15 23:41N 35°37' W 070°32'1 7.2
2017-Dec-15 23:36N 35°37' W 070°32'0 0.0
2017-Dec-15 22:34N 35°37' W 070°32'1 1.2
2017-Dec-15 22:03N 35°38' W 070°32'0 0.0
2017-Dec-15 21:48N 35°38' W 070°32'0 0.5
2017-Dec-15 20:50N 35°38' W 070°33'0 0.0
2017-Dec-15 20:47N 35°38' W 070°33'0 9.8
2017-Dec-15 20:44N 35°38' W 070°32'1 0.8
2017-Dec-15 19:08N 35°39' W 070°33'2 0.6
2017-Dec-15 16:03N 35°41' W 070°32'1 5.2
2017-Dec-15 15:54N 35°41' W 070°33'0 0.6
2017-Dec-15 15:07N 35°41' W 070°32'029.2
2017-Dec-15 15:06N 35°41' W 070°33'1 0.9
2017-Dec-15 14:24N 35°42' W 070°33'0 0.0
2017-Dec-15 14:15N 35°42' W 070°33'0 1.5
2017-Dec-15 13:56N 35°42' W 070°34'0 0.0
2017-Dec-15 13:53N 35°42' W 070°34'1 2.7
2017-Dec-15 13:26N 35°43' W 070°34'0 0.0
2017-Dec-15 12:23N 35°43' W 070°34'0 0.0
2017-Dec-15 12:15N 35°43' W 070°34'0 7.3
2017-Dec-15 12:11N 35°43' W 070°34'0 0.0
2017-Dec-15 11:57N 35°43' W 070°34'0 9.7
2017-Dec-15 11:54N 35°43' W 070°34'1 0.8
2017-Dec-15 10:58N 35°44' W 070°34'0 0.0
2017-Dec-15 10:36N 35°44' W 070°34'0 0.0
2017-Dec-15 10:30N 35°44' W 070°34'0 2.7
2017-Dec-15 10:19N 35°44' W 070°34'0 0.0
2017-Dec-15 10:16N 35°44' W 070°34'1 7.7
2017-Dec-15 10:10N 35°44' W 070°34'0 0.0
2017-Dec-15 09:23N 35°44' W 070°34'0 0.0
2017-Dec-15 09:19N 35°44' W 070°34'115.5
2017-Dec-15 09:16N 35°44' W 070°35'0 0.0
2017-Dec-15 08:40N 35°44' W 070°35'1 1.2
2017-Dec-15 07:42N 35°45' W 070°35'0 0.0
2017-Dec-15 07:39N 35°45' W 070°35'2 0.4
2017-Dec-15 02:46N 35°47' W 070°36'0 0.7
2017-Dec-15 02:04N 35°47' W 070°35'0 4.2
2017-Dec-15 01:57N 35°47' W 070°36'1 2.9
2017-Dec-15 01:32N 35°48' W 070°36'0 0.0
2017-Dec-15 01:08N 35°48' W 070°36'0 0.0
2017-Dec-15 01:02N 35°48' W 070°36'0 0.0
2017-Dec-15 00:59N 35°48' W 070°36'0 0.0
2017-Dec-15 00:41N 35°48' W 070°36'1 1.1
2017-Dec-14 23:57N 35°49' W 070°37'1 9.8
2017-Dec-14 23:50N 35°49' W 070°38'0 0.0
2017-Dec-14 23:23N 35°49' W 070°38'0 0.0
2017-Dec-14 23:04N 35°49' W 070°38'0 0.0
2017-Dec-14 23:01N 35°49' W 070°38'1 1.0
2017-Dec-14 22:15N 35°50' W 070°37'014.6
2017-Dec-14 22:13N 35°50' W 070°38'1 1.5
2017-Dec-14 21:20N 35°51' W 070°38'1 2.4
2017-Dec-14 21:01N 35°50' W 070°39'0 0.0
2017-Dec-14 20:56N 35°50' W 070°39'2 1.0
2017-Dec-14 19:19N 35°52' W 070°40'6 1.5
2017-Dec-14 15:27N 35°53' W 070°47'0 0.0
2017-Dec-14 14:42N 35°53' W 070°47'0 0.0
2017-Dec-14 14:36N 35°53' W 070°47'0 0.0
2017-Dec-14 14:12N 35°53' W 070°47'0 0.0
2017-Dec-14 14:06N 35°53' W 070°47'0 0.0
2017-Dec-14 13:47N 35°53' W 070°47'1 1.2
2017-Dec-14 12:35N 35°53' W 070°49'123.2
2017-Dec-14 12:33N 35°53' W 070°50'0 0.0
2017-Dec-14 12:29N 35°53' W 070°50'1 7.7
2017-Dec-14 12:23N 35°53' W 070°50'0 0.0
2017-Dec-14 10:54N 35°53' W 070°50'0 9.7
2017-Dec-14 10:51N 35°53' W 070°51'0 9.7
2017-Dec-14 10:48N 35°53' W 070°50'0 0.0
2017-Dec-14 10:46N 35°53' W 070°50'1 1.3
2017-Dec-14 09:37N 35°53' W 070°52'0 0.0
2017-Dec-14 09:31N 35°53' W 070°52'238.9
2017-Dec-14 09:28N 35°53' W 070°55'1 4.6
2017-Dec-14 09:09N 35°53' W 070°53'112.5
2017-Dec-14 09:02N 35°53' W 070°55'0 0.0
2017-Dec-14 07:55N 35°53' W 070°55'434.9
2017-Dec-14 07:48N 35°52' W 070°59'0 0.0
2017-Dec-14 03:09N 35°52' W 070°59'0 0.0
2017-Dec-14 02:19N 35°52' W 070°59'1 2.5
2017-Dec-14 01:44N 35°52' W 071°01'0 0.0
2017-Dec-14 01:28N 35°52' W 071°01'0 0.0
2017-Dec-14 01:25N 35°52' W 071°01'0 0.0
2017-Dec-14 01:20N 35°52' W 071°01'0 0.0
2017-Dec-14 01:11N 35°52' W 071°01'0 0.0
2017-Dec-14 00:42N 35°52' W 071°01'0 0.0
2017-Dec-14 00:35N 35°52' W 071°01'0 0.0
2017-Dec-14 00:09N 35°52' W 071°01'1 9.7
2017-Dec-14 00:03N 35°52' W 071°02'0 0.0
2017-Dec-13 23:45N 35°52' W 071°02'0 0.0
2017-Dec-13 23:42N 35°52' W 071°02'0 0.0
2017-Dec-13 23:33N 35°52' W 071°02'1 0.9
2017-Dec-13 22:39N 35°51' W 071°03'1 3.0
2017-Dec-13 22:27N 35°52' W 071°03'0 0.9
2017-Dec-13 21:53N 35°52' W 071°04'0 0.7
2017-Dec-13 21:13N 35°52' W 071°04'0 0.0
2017-Dec-13 21:10N 35°52' W 071°04'0 0.0
2017-Dec-13 21:07N 35°52' W 071°04'2 1.0
2017-Dec-13 19:32N 35°52' W 071°06'0 0.0
2017-Dec-13 19:29N 35°52' W 071°06'453.0
2017-Dec-13 19:24N 35°53' W 071°11'0 0.0
2017-Dec-13 17:49N 35°53' W 071°11'0 0.2
2017-Dec-13 15:48N 35°53' W 071°12'0 0.0
2017-Dec-13 15:06N 35°53' W 071°12'0 0.0
2017-Dec-13 15:03N 35°53' W 071°12'1 1.5
2017-Dec-13 14:24N 35°53' W 071°13'1 9.7
2017-Dec-13 14:18N 35°53' W 071°14'0 0.0
2017-Dec-13 14:09N 35°53' W 071°14'1 1.3
2017-Dec-13 13:16N 35°53' W 071°16'0 0.0
2017-Dec-13 12:58N 35°53' W 071°16'2 9.7
2017-Dec-13 12:46N 35°53' W 071°18'0 0.0
2017-Dec-13 12:41N 35°53' W 071°18'0 0.0
2017-Dec-13 11:21N 35°53' W 071°18'112.0
2017-Dec-13 11:18N 35°53' W 071°18'246.3
2017-Dec-13 11:15N 35°55' W 071°20'0 0.0
2017-Dec-13 11:00N 35°55' W 071°20'218.0
2017-Dec-13 10:54N 35°53' W 071°20'0 0.0
2017-Dec-13 09:49N 35°53' W 071°20'0 0.0
2017-Dec-13 09:48N 35°53' W 071°20'0 0.0
2017-Dec-13 09:43N 35°53' W 071°20'0 0.0
2017-Dec-13 09:42N 35°53' W 071°20'0 7.3
2017-Dec-13 09:38N 35°53' W 071°20'0 0.0
2017-Dec-13 09:37N 35°53' W 071°20'218.9
2017-Dec-13 09:32N 35°53' W 071°22'0 0.0
2017-Dec-13 08:06N 35°53' W 071°22'0 0.0
2017-Dec-13 08:03N 35°53' W 071°22'5 1.2
2017-Dec-13 03:29N 35°55' W 071°29'1 7.7
2017-Dec-13 03:23N 35°54' W 071°29'0 0.0
2017-Dec-13 02:40N 35°54' W 071°29'1 1.7
2017-Dec-13 01:50N 35°54' W 071°31'0 0.0
2017-Dec-13 01:46N 35°54' W 071°31'1 7.3
2017-Dec-13 01:38N 35°54' W 071°32'0 0.0
2017-Dec-13 01:02N 35°54' W 071°32'1 9.0
2017-Dec-13 00:58N 35°53' W 071°32'119.4
2017-Dec-13 00:55N 35°53' W 071°34'1 4.3
2017-Dec-13 00:39N 35°54' W 071°32'1 3.8
2017-Dec-13 00:21N 35°53' W 071°34'0 4.9
2017-Dec-13 00:15N 35°53' W 071°33'0 2.9
2017-Dec-13 00:05N 35°53' W 071°34'0 0.0
2017-Dec-13 00:03N 35°53' W 071°34'2 1.3
2017-Dec-12 22:37N 35°52' W 071°35'0 0.0
2017-Dec-12 22:28N 35°52' W 071°35'2 1.7
2017-Dec-12 21:23N 35°51' W 071°37'337.6
2017-Dec-12 21:19N 35°50' W 071°40'0 0.0
2017-Dec-12 19:44N 35°50' W 071°40'0 0.0
2017-Dec-12 19:39N 35°50' W 071°40'4 2.3
2017-Dec-12 17:59N 35°49' W 071°44'1 0.7
2017-Dec-12 16:08N 35°47' W 071°45'0 0.0
2017-Dec-12 15:24N 35°47' W 071°45'111.4
2017-Dec-12 15:18N 35°47' W 071°46'0 0.0
2017-Dec-12 14:34N 35°47' W 071°46'0 0.0
2017-Dec-12 14:30N 35°47' W 071°46'269.5
2017-Dec-12 14:28N 35°45' W 071°48'0 0.0
2017-Dec-12 14:27N 35°45' W 071°48'0 0.0
2017-Dec-12 13:37N 35°45' W 071°48'0 0.0
2017-Dec-12 12:55N 35°45' W 071°48'1 9.7
2017-Dec-12 12:47N 35°44' W 071°49'0 0.0
2017-Dec-12 12:42N 35°44' W 071°49'0 0.0
2017-Dec-12 11:51N 35°44' W 071°49'0 4.9
2017-Dec-12 11:45N 35°44' W 071°48'1 1.9
2017-Dec-12 11:15N 35°44' W 071°49'113.0
2017-Dec-12 11:09N 35°43' W 071°50'0 0.0
2017-Dec-12 10:13N 35°43' W 071°50'0 0.0
2017-Dec-12 10:07N 35°43' W 071°50'0 0.0
2017-Dec-12 10:02N 35°43' W 071°50'0 0.0
2017-Dec-12 10:01N 35°43' W 071°50'0 0.0
2017-Dec-12 09:56N 35°43' W 071°50'113.0
2017-Dec-12 09:50N 35°41' W 071°50'0 0.0
2017-Dec-12 08:32N 35°41' W 071°50'1 2.6
2017-Dec-12 08:18N 35°41' W 071°50'0 7.3
2017-Dec-12 08:14N 35°41' W 071°51'481.9
2017-Dec-12 08:11N 35°37' W 071°53'0 0.0
2017-Dec-12 03:48N 35°37' W 071°53'218.6
2017-Dec-12 03:43N 35°36' W 071°55'0 0.0
2017-Dec-12 02:58N 35°36' W 071°55'0 0.0
2017-Dec-12 02:08N 35°36' W 071°55'1 4.0
2017-Dec-12 01:59N 35°35' W 071°55'0 0.0
2017-Dec-12 01:25N 35°35' W 071°55'0 0.0
2017-Dec-12 01:19N 35°35' W 071°55'119.5
2017-Dec-12 01:16N 35°35' W 071°56'1 1.2
2017-Dec-12 00:36N 35°35' W 071°55'0 0.0
2017-Dec-12 00:32N 35°35' W 071°55'0 0.0
2017-Dec-12 00:29N 35°35' W 071°55'0 9.8
2017-Dec-12 00:26N 35°35' W 071°55'0 9.8
2017-Dec-12 00:23N 35°35' W 071°55'1 0.7
2017-Dec-11 23:20N 35°34' W 071°56'0 0.0
2017-Dec-11 22:58N 35°34' W 071°56'0 4.2
2017-Dec-11 22:51N 35°34' W 071°56'0 0.0
2017-Dec-11 22:45N 35°34' W 071°56'125.9
2017-Dec-11 22:42N 35°33' W 071°57'0 0.0
2017-Dec-11 21:48N 35°33' W 071°57'0 0.0
2017-Dec-11 21:39N 35°33' W 071°57'0 0.0
2017-Dec-11 21:34N 35°33' W 071°57'0 9.8
2017-Dec-11 21:31N 35°33' W 071°58'1 1.8
2017-Dec-11 21:11N 35°32' W 071°58'0 0.0
2017-Dec-11 19:56N 35°32' W 071°58'0 0.0
2017-Dec-11 19:51N 35°32' W 071°58'324.1
2017-Dec-11 19:44N 35°30' W 071°59'0 0.0
2017-Dec-11 18:13N 35°30' W 071°59'0 0.0
2017-Dec-11 18:06N 35°30' W 071°59'1 0.8
2017-Dec-11 16:28N 35°29' W 072°00'0 0.0
2017-Dec-11 15:45N 35°29' W 072°00'213.7
2017-Dec-11 15:36N 35°27' W 072°01'0 0.0
2017-Dec-11 14:48N 35°27' W 072°01'0 0.0
2017-Dec-11 14:42N 35°27' W 072°01'0 0.0
2017-Dec-11 14:06N 35°27' W 072°01'0 0.0
2017-Dec-11 13:43N 35°27' W 072°01'0 0.0
2017-Dec-11 13:07N 35°27' W 072°01'1 5.8
2017-Dec-11 12:59N 35°26' W 072°02'0 0.0
2017-Dec-11 12:17N 35°26' W 072°02'0 0.0
2017-Dec-11 12:11N 35°26' W 072°02'1 1.0
2017-Dec-11 11:25N 35°26' W 072°02'112.0
2017-Dec-11 11:22N 35°25' W 072°02'0 0.0
2017-Dec-11 10:42N 35°25' W 072°02'0 1.6
2017-Dec-11 10:24N 35°25' W 072°03'0 0.0
2017-Dec-11 10:12N 35°25' W 072°03'0 0.0
2017-Dec-11 10:07N 35°25' W 072°03'115.5
2017-Dec-11 10:02N 35°24' W 072°04'0 0.0
2017-Dec-11 09:04N 35°24' W 072°04'1 1.5
2017-Dec-11 08:32N 35°23' W 072°03'118.0
2017-Dec-11 08:30N 35°23' W 072°03'424.6
2017-Dec-11 08:20N 35°19' W 072°05'0 0.0
2017-Dec-11 06:43N 35°19' W 072°05'0 0.0
2017-Dec-11 03:18N 35°19' W 072°05'0 0.0
2017-Dec-11 02:29N 35°19' W 072°05'0 0.0
2017-Dec-11 02:21N 35°19' W 072°05'0 0.0
2017-Dec-11 01:43N 35°19' W 072°05'1 6.0
2017-Dec-11 01:37N 35°19' W 072°05'0 0.0
2017-Dec-11 01:04N 35°19' W 072°05'0 0.0
2017-Dec-11 00:51N 35°19' W 072°05'1 7.2
2017-Dec-11 00:46N 35°18' W 072°05'0 0.0
2017-Dec-11 00:40N 35°18' W 072°05'029.4
2017-Dec-11 00:39N 35°18' W 072°05'0 0.6
2017-Dec-10 23:47N 35°18' W 072°05'1 2.4
2017-Dec-10 23:28N 35°17' W 072°05'0 1.2
2017-Dec-10 23:04N 35°17' W 072°05'0 0.0
2017-Dec-10 22:58N 35°17' W 072°05'1 7.2
2017-Dec-10 22:53N 35°17' W 072°05'0 0.0
2017-Dec-10 22:14N 35°17' W 072°05'0 0.0
2017-Dec-10 21:48N 35°17' W 072°05'112.0
2017-Dec-10 21:45N 35°17' W 072°05'363.1
2017-Dec-10 21:42N 35°14' W 072°07'0 0.0
2017-Dec-10 20:07N 35°14' W 072°07'0 0.0
2017-Dec-10 20:03N 35°14' W 072°07'0 0.0
2017-Dec-10 19:58N 35°14' W 072°07'0 0.0
2017-Dec-10 19:55N 35°14' W 072°07'0 0.0
2017-Dec-10 18:24N 35°14' W 072°07'1 6.6
2017-Dec-10 18:17N 35°14' W 072°07'0 0.0
2017-Dec-10 16:06N 35°14' W 072°07'0 0.0
2017-Dec-10 16:03N 35°14' W 072°07'0 0.0
2017-Dec-10 15:10N 35°14' W 072°07'1 2.7
2017-Dec-10 14:53N 35°13' W 072°07'0 0.0
2017-Dec-10 14:27N 35°13' W 072°07'1 6.9
2017-Dec-10 14:17N 35°13' W 072°08'0 0.0
2017-Dec-10 13:30N 35°13' W 072°08'0 0.0
2017-Dec-10 13:18N 35°13' W 072°08'0 5.9
2017-Dec-10 13:13N 35°13' W 072°07'0 9.8
2017-Dec-10 13:10N 35°13' W 072°08'0 0.0
2017-Dec-10 12:36N 35°13' W 072°08'1 0.6
2017-Dec-10 11:38N 35°12' W 072°08'1 9.0
2017-Dec-10 11:34N 35°11' W 072°08'0 0.0
2017-Dec-10 11:16N 35°11' W 072°08'0 0.0
2017-Dec-10 11:13N 35°11' W 072°08'0 0.0
2017-Dec-10 10:53N 35°11' W 072°08'0 0.0
2017-Dec-10 10:18N 35°11' W 072°08'111.6
2017-Dec-10 10:14N 35°11' W 072°08'0 0.0
2017-Dec-10 09:34N 35°11' W 072°08'0 0.0
2017-Dec-10 09:30N 35°11' W 072°08'0 0.0
2017-Dec-10 09:27N 35°11' W 072°08'0 0.0
2017-Dec-10 08:43N 35°11' W 072°08'320.3
2017-Dec-10 08:34N 35°13' W 072°11'0 0.0
2017-Dec-10 08:31N 35°13' W 072°11'0 0.0
2017-Dec-10 06:54N 35°13' W 072°11'0 0.0
2017-Dec-10 02:50N 35°13' W 072°11'0 0.0
2017-Dec-10 02:44N 35°13' W 072°11'0 0.8
2017-Dec-10 02:07N 35°13' W 072°12'0 4.2
2017-Dec-10 02:00N 35°13' W 072°11'1 1.7
2017-Dec-10 01:08N 35°13' W 072°13'0 4.9
2017-Dec-10 01:02N 35°13' W 072°14'0 2.5
2017-Dec-10 00:50N 35°13' W 072°13'1 2.5
2017-Dec-10 00:26N 35°13' W 072°14'0 2.1
2017-Dec-10 00:12N 35°13' W 072°14'0 0.0
2017-Dec-10 00:00N 35°13' W 072°14'0 0.0
2017-Dec-09 23:59N 35°13' W 072°14'1 1.6
2017-Dec-09 23:15N 35°12' W 072°15'0 0.0
2017-Dec-09 23:09N 35°12' W 072°15'1 1.4
2017-Dec-09 22:36N 35°11' W 072°16'0 0.0
2017-Dec-09 22:21N 35°11' W 072°16'2 3.2
2017-Dec-09 21:52N 35°10' W 072°17'0 0.0
2017-Dec-09 20:52N 35°10' W 072°17'0 0.0
2017-Dec-09 20:18N 35°10' W 072°17'0 0.0
2017-Dec-09 20:15N 35°10' W 072°17'0 0.0
2017-Dec-09 20:12N 35°10' W 072°17'219.0
2017-Dec-09 20:06N 35°09' W 072°19'0 0.0
2017-Dec-09 18:37N 35°09' W 072°19'3 0.8
2017-Dec-09 15:29N 35°07' W 072°20'0 0.0
2017-Dec-09 14:47N 35°07' W 072°20'0 0.0
2017-Dec-09 14:44N 35°07' W 072°20'112.0
2017-Dec-09 14:41N 35°06' W 072°20'0 0.0
2017-Dec-09 14:38N 35°06' W 072°20'0 0.0
2017-Dec-09 13:52N 35°06' W 072°20'1 2.0
2017-Dec-09 13:29N 35°05' W 072°20'0 9.8
2017-Dec-09 13:26N 35°05' W 072°21'111.6
2017-Dec-09 13:22N 35°05' W 072°20'0 0.0
2017-Dec-09 12:59N 35°05' W 072°20'0 0.0
2017-Dec-09 11:51N 35°05' W 072°20'1 7.2
2017-Dec-09 11:46N 35°04' W 072°20'0 0.0
2017-Dec-09 11:45N 35°04' W 072°20'0 0.0
2017-Dec-09 11:42N 35°04' W 072°20'0 0.0
2017-Dec-09 11:16N 35°04' W 072°20'1 0.8
2017-Dec-09 10:31N 35°04' W 072°20'0 0.0
2017-Dec-09 10:27N 35°04' W 072°20'0 0.0
2017-Dec-09 10:06N 35°04' W 072°20'0 0.0
2017-Dec-09 10:03N 35°04' W 072°20'1 0.5
2017-Dec-09 08:54N 35°03' W 072°20'0 0.0
2017-Dec-09 08:51N 35°03' W 072°20'0 0.0
2017-Dec-09 08:48N 35°03' W 072°20'1 9.0
2017-Dec-09 08:44N 35°02' W 072°20'0 0.0
2017-Dec-09 08:24N 35°02' W 072°20'3 2.0
2017-Dec-09 07:05N 35°01' W 072°23'0 0.0
2017-Dec-09 03:07N 35°01' W 072°23'0 0.0
2017-Dec-09 02:25N 35°01' W 072°23'1 0.7
2017-Dec-09 01:32N 35°00' W 072°23'0 0.0
2017-Dec-09 01:28N 35°00' W 072°23'1 4.5
2017-Dec-09 01:20N 34°59' W 072°23'0 0.0
2017-Dec-09 01:07N 34°59' W 072°23'0 0.0
2017-Dec-09 01:02N 34°59' W 072°23'0 1.8
2017-Dec-09 00:46N 34°59' W 072°23'0 0.0
2017-Dec-09 00:40N 34°59' W 072°23'118.0
2017-Dec-09 00:38N 34°59' W 072°23'0 0.0
2017-Dec-09 00:37N 34°59' W 072°23'0 0.0
2017-Dec-09 00:28N 34°59' W 072°23'1 0.9
2017-Dec-08 23:50N 34°58' W 072°23'1 9.0
2017-Dec-08 23:46N 34°58' W 072°23'0 0.0
2017-Dec-08 23:26N 34°58' W 072°23'0 0.0
2017-Dec-08 23:20N 34°58' W 072°23'0 0.0
2017-Dec-08 23:17N 34°58' W 072°23'0 0.0
2017-Dec-08 22:56N 34°58' W 072°23'0 0.0
2017-Dec-08 22:53N 34°58' W 072°23'0 0.0
2017-Dec-08 22:47N 34°58' W 072°23'1 1.9
2017-Dec-08 22:06N 34°56' W 072°23'0 0.0
2017-Dec-08 21:42N 34°56' W 072°23'0 0.0
2017-Dec-08 21:39N 34°56' W 072°23'0 0.0
2017-Dec-08 21:23N 34°56' W 072°23'1 0.8
2017-Dec-08 20:27N 34°56' W 072°22'1 5.8
2017-Dec-08 20:19N 34°55' W 072°22'0 0.0
2017-Dec-08 18:47N 34°55' W 072°22'220.0
2017-Dec-08 18:40N 34°53' W 072°20'0 0.0
2017-Dec-08 15:52N 34°53' W 072°20'029.5
2017-Dec-08 15:51N 34°53' W 072°19'0 0.0
2017-Dec-08 15:07N 34°53' W 072°19'1 1.3
2017-Dec-08 14:14N 34°53' W 072°18'0 4.2
2017-Dec-08 14:07N 34°53' W 072°19'0 1.2
2017-Dec-08 13:42N 34°53' W 072°18'0 0.0
2017-Dec-08 13:39N 34°53' W 072°18'1 3.1
2017-Dec-08 13:17N 34°52' W 072°17'0 0.0
2017-Dec-08 12:12N 34°52' W 072°17'0 0.0
2017-Dec-08 12:03N 34°52' W 072°17'212.0
2017-Dec-08 11:55N 34°52' W 072°15'0 0.0
2017-Dec-08 11:48N 34°52' W 072°15'0 0.0
2017-Dec-08 11:45N 34°52' W 072°15'0 0.5
2017-Dec-08 10:44N 34°52' W 072°16'1 6.0
2017-Dec-08 10:38N 34°52' W 072°16'0 0.0
2017-Dec-08 10:35N 34°52' W 072°16'0 9.8
2017-Dec-08 10:32N 34°52' W 072°15'0 0.0
2017-Dec-08 10:01N 34°52' W 072°15'1 0.8
2017-Dec-08 09:03N 34°52' W 072°14'0 0.0
2017-Dec-08 08:57N 34°52' W 072°14'029.5
2017-Dec-08 08:56N 34°52' W 072°15'0 0.0
2017-Dec-08 07:22N 34°52' W 072°15'123.1
2017-Dec-08 07:19N 34°52' W 072°16'2 0.6
2017-Dec-08 03:31N 34°50' W 072°14'1 6.0
2017-Dec-08 03:25N 34°50' W 072°14'0 0.0
2017-Dec-08 02:41N 34°50' W 072°14'1 1.5
2017-Dec-08 01:53N 34°49' W 072°14'0 0.0
2017-Dec-08 01:50N 34°49' W 072°14'  

Dump ship's entire track history